Terminal Aerodrome Forecast
Issued by NWS Raleigh/Durham, NC

Home | Current Version | Previous Version | Text Only | Print | Product List | Glossary On
Versions: 1 2 3 4 5 6 7 8 9 10 11 12 13 14 15 16 17 18 19 20 21 22 23 24 25 26 27 28 29 30 31 32 33 34 35 36 37 38 39 40 41 42 43
000
FTUS42 KRAH 290537
TAFRDU
TAF
KRDU 290537Z 2906/3006 VRB03KT 1/2SM FG BKN002
      TEMPO 2906/2908 1/4SM FG VV002
     FM290800 01006KT 4SM -RA BR SCT007 OVC015
     FM291100 05008KT 2SM RA BR SCT002 OVC008
     FM292100 03006KT 2SM BR OVC004=

USA.gov is the U.S. government's official web portal to all federal, state and local government web resources and services.